^^
Saratoga-Weather Station Historical Data
Daily Summary for January 8, 2021 Units:  Metric    English   Both
Daily Weekly Monthly Yearly Custom
  High: Low: Average:
Temperature: 20.1 °C 2.3 °C 11.2 °C
Dew Point: 12.9 °C 0.6 °C 6.3 °C
Humidity: 93% 56% 74%
Wind Speed: 25.7km/h 0km/h 2km/h
Wind Gust: 25.7km/h - -
Wind- - ESE
Pressure: 1019.0 hPa 1009.5 hPa -
Precipitation: 0.0 mm    
Historical Graphs
 
 
Tabular Data for January 8, 2021
Time Temperature Dew Point Pressure Wind Wind Speed Wind Gust Humidity Rainfall Rate (Hourly) solar
00:02 5.4 °C 2.1 °C 1018.6 hPa West 1.4 km/h 1.6 km/h 79% 0.0 mm 0 W/m2
00:07 5.3 °C 2.1 °C 1018.6 hPa Calm     80% 0.0 mm 0 W/m2
00:12 5.2 °C 2.2 °C 1018.6 hPa Calm     81% 0.0 mm 0 W/m2
00:17 5.1 °C 1.9 °C 1018.6 hPa Calm     80% 0.0 mm 0 W/m2
00:22 4.9 °C 1.7 °C 1018.6 hPa Calm     80% 0.0 mm 0 W/m2
00:27 4.8 °C 1.6 °C 1019.0 hPa Calm     80% 0.0 mm 0 W/m2
00:32 4.8 °C 1.8 °C 1019.0 hPa Calm     81% 0.0 mm 0 W/m2
00:37 4.7 °C 1.7 °C 1018.6 hPa Calm     81% 0.0 mm 0 W/m2
00:42 4.6 °C 1.6 °C 1018.6 hPa Calm     81% 0.0 mm 0 W/m2
00:47 4.5 °C 1.5 °C 1018.6 hPa Calm     81% 0.0 mm 0 W/m2
00:52 4.4 °C 1.4 °C 1018.6 hPa Calm     81% 0.0 mm 0 W/m2
00:57 4.3 °C 1.2 °C 1018.6 hPa Calm     80% 0.0 mm 0 W/m2
01:02 4.3 °C 1.2 °C 1018.6 hPa Calm     80% 0.0 mm 0 W/m2
01:08 4.2 °C 1.2 °C 1018.6 hPa Calm     81% 0.0 mm 0 W/m2
01:13 4.1 °C 1.3 °C 1018.6 hPa Calm   1.6 km/h 82% 0.0 mm 0 W/m2
01:18 4.1 °C 1.5 °C 1018.6 hPa Calm     83% 0.0 mm 0 W/m2
01:23 4.1 °C 1.5 °C 1018.6 hPa Calm     83% 0.0 mm 0 W/m2
01:28 4 °C 1.4 °C 1018.6 hPa Calm     83% 0.0 mm 0 W/m2
01:33 4 °C 1.5 °C 1018.6 hPa Calm     84% 0.0 mm 0 W/m2
01:38 3.9 °C 1.4 °C 1018.3 hPa Calm     84% 0.0 mm 0 W/m2
01:43 3.9 °C 1.4 °C 1018.3 hPa Calm     84% 0.0 mm 0 W/m2
01:48 3.8 °C 1.3 °C 1018.3 hPa Calm     84% 0.0 mm 0 W/m2
01:53 3.7 °C 1.2 °C 1018.3 hPa Calm     84% 0.0 mm 0 W/m2
01:58 3.7 °C 1.2 °C 1018.3 hPa Calm     84% 0.0 mm 0 W/m2
02:03 3.6 °C 1.3 °C 1018.3 hPa Calm     85% 0.0 mm 0 W/m2
02:08 3.6 °C 1.3 °C 1018.3 hPa Calm     85% 0.0 mm 0 W/m2
02:13 3.5 °C 1.2 °C 1018.3 hPa Calm     85% 0.0 mm 0 W/m2
02:18 3.6 °C 1.3 °C 1018.3 hPa Calm     85% 0.0 mm 0 W/m2
02:23 3.7 °C 1.4 °C 1018.3 hPa Calm     85% 0.0 mm 0 W/m2
02:28 3.7 °C 1.4 °C 1018.3 hPa Calm     85% 0.0 mm 0 W/m2
02:33 3.7 °C 1.4 °C 1018.3 hPa Calm     85% 0.0 mm 0 W/m2
02:38 3.7 °C 1.4 °C 1018.3 hPa Calm     85% 0.0 mm 0 W/m2
02:43 3.7 °C 1.6 °C 1018.3 hPa Calm     86% 0.0 mm 0 W/m2
02:48 3.7 °C 1.6 °C 1018.0 hPa Calm     86% 0.0 mm 0 W/m2
02:53 3.7 °C 1.6 °C 1018.0 hPa Calm     86% 0.0 mm 0 W/m2
02:58 3.7 °C 1.6 °C 1018.0 hPa Calm     86% 0.0 mm 0 W/m2
03:03 3.7 °C 1.7 °C 1018.0 hPa Calm     87% 0.0 mm 0 W/m2
03:08 3.7 °C 1.7 °C 1018.0 hPa Calm     87% 0.0 mm 0 W/m2
03:13 3.7 °C 1.7 °C 1018.0 hPa Calm     87% 0.0 mm 0 W/m2
03:18 3.7 °C 1.7 °C 1018.0 hPa Calm     87% 0.0 mm 0 W/m2
03:23 3.6 °C 1.6 °C 1018.0 hPa Calm     87% 0.0 mm 0 W/m2
03:28 3.6 °C 1.6 °C 1018.0 hPa Calm     87% 0.0 mm 0 W/m2
03:33 3.4 °C 1.4 °C 1018.0 hPa Calm     87% 0.0 mm 0 W/m2
03:38 3.3 °C 1.3 °C 1018.0 hPa Calm     87% 0.0 mm 0 W/m2
03:43 3.2 °C 1.2 °C 1018.0 hPa Calm     87% 0.0 mm 0 W/m2
03:48 3.1 °C 1.1 °C 1018.0 hPa Calm     87% 0.0 mm 0 W/m2
03:53 3 °C 1.2 °C 1018.0 hPa Calm     88% 0.0 mm 0 W/m2
03:58 2.9 °C 1.1 °C 1018.0 hPa Calm     88% 0.0 mm 0 W/m2
04:03 2.8 °C 1 °C 1018.0 hPa Calm     88% 0.0 mm 0 W/m2
04:08 2.7 °C 0.9 °C 1018.0 hPa Calm     88% 0.0 mm 0 W/m2
04:13 2.6 °C 0.8 °C 1017.6 hPa Calm     88% 0.0 mm 0 W/m2
04:18 2.5 °C 0.7 °C 1017.6 hPa Calm     88% 0.0 mm 0 W/m2
04:23 2.4 °C 0.6 °C 1017.6 hPa Calm     88% 0.0 mm 0 W/m2
04:28 2.4 °C 0.8 °C 1017.6 hPa Calm     89% 0.0 mm 0 W/m2
04:33 2.4 °C 0.9 °C 1017.6 hPa Calm     90% 0.0 mm 0 W/m2
04:38 2.4 °C 0.9 °C 1017.6 hPa Calm     90% 0.0 mm 0 W/m2
04:43 2.4 °C 0.9 °C 1017.6 hPa Calm     90% 0.0 mm 0 W/m2
04:48 2.3 °C 0.8 °C 1017.6 hPa Calm     90% 0.0 mm 0 W/m2
04:53 2.3 °C 0.8 °C 1017.3 hPa Calm     90% 0.0 mm 0 W/m2
04:58 2.3 °C 1 °C 1017.3 hPa Calm     91% 0.0 mm 0 W/m2
05:03 2.4 °C 1.1 °C 1017.3 hPa Calm     91% 0.0 mm 0 W/m2
05:08 2.5 °C 1.2 °C 1017.3 hPa Calm     91% 0.0 mm 0 W/m2
05:13 2.6 °C 1.4 °C 1017.3 hPa Calm     92% 0.0 mm 0 W/m2
05:18 2.6 °C 1.4 °C 1017.3 hPa Calm     92% 0.0 mm 0 W/m2
05:23 2.7 °C 1.5 °C 1017.3 hPa Calm     92% 0.0 mm 0 W/m2
05:28 2.8 °C 1.6 °C 1017.3 hPa Calm     92% 0.0 mm 0 W/m2
05:33 2.8 °C 1.6 °C 1017.3 hPa Calm     92% 0.0 mm 0 W/m2
05:39 2.9 °C 1.7 °C 1017.3 hPa Calm     92% 0.0 mm 0 W/m2
05:44 3 °C 1.8 °C 1016.9 hPa Calm     92% 0.0 mm 0 W/m2
05:49 3.1 °C 1.9 °C 1017.3 hPa Calm     92% 0.0 mm 0 W/m2
05:54 3.1 °C 1.9 °C 1017.3 hPa Calm     92% 0.0 mm 0 W/m2
05:59 3.1 °C 1.9 °C 1017.3 hPa Calm     92% 0.0 mm 5 W/m2
06:04 3.2 °C 2 °C 1017.3 hPa Calm     92% 0.0 mm 5 W/m2
06:09 3.2 °C 2 °C 1017.3 hPa Calm     92% 0.0 mm 7 W/m2
06:14 3.3 °C 2.1 °C 1017.3 hPa Calm     92% 0.0 mm 11 W/m2
06:19 3.3 °C 2.1 °C 1016.9 hPa Calm     92% 0.0 mm 14 W/m2
06:24 3.4 °C 2.2 °C 1016.9 hPa Calm     92% 0.0 mm 21 W/m2
06:29 3.4 °C 2.2 °C 1016.9 hPa Calm     92% 0.0 mm 28 W/m2
06:34 3.5 °C 2.3 °C 1016.9 hPa Calm     92% 0.0 mm 30 W/m2
06:39 3.6 °C 2.4 °C 1016.9 hPa Calm     92% 0.0 mm 37 W/m2
06:44 3.7 °C 2.7 °C 1016.9 hPa Calm     93% 0.0 mm 39 W/m2
06:49 3.8 °C 2.6 °C 1016.9 hPa Calm     92% 0.0 mm 42 W/m2
06:54 3.8 °C 2.6 °C 1016.9 hPa West 1.4 km/h 1.6 km/h 92% 0.0 mm 40 W/m2
06:59 3.9 °C 2.6 °C 1016.9 hPa Calm     91% 0.0 mm 46 W/m2
07:04 4 °C 2.7 °C 1016.9 hPa Calm   1.6 km/h 91% 0.0 mm 49 W/m2
07:09 4.1 °C 2.8 °C 1016.9 hPa Calm     91% 0.0 mm 54 W/m2
07:14 4.1 °C 2.6 °C 1016.9 hPa WSW 3.2 km/h 3.2 km/h 90% 0.0 mm 44 W/m2
07:19 4.2 °C 2.7 °C 1016.9 hPa ESE 1.4 km/h 3.2 km/h 90% 0.0 mm 54 W/m2
07:24 4.2 °C 2.5 °C 1016.9 hPa Calm   3.2 km/h 89% 0.0 mm 86 W/m2
07:29 4.2 °C 2.7 °C 1016.9 hPa Calm   1.6 km/h 90% 0.0 mm 105 W/m2
07:34 4.3 °C 2.8 °C 1016.9 hPa Calm   1.6 km/h 90% 0.0 mm 91 W/m2
07:39 4.4 °C 2.7 °C 1016.9 hPa Calm   3.2 km/h 89% 0.0 mm 65 W/m2
07:44 4.5 °C 2.8 °C 1016.9 hPa ENE 3.2 km/h 3.2 km/h 89% 0.0 mm 83 W/m2
07:49 4.6 °C 2.9 °C 1016.9 hPa Calm   1.6 km/h 89% 0.0 mm 118 W/m2
07:54 4.7 °C 3 °C 1016.9 hPa ENE 1.4 km/h 1.6 km/h 89% 0.0 mm 125 W/m2
07:59 4.7 °C 3 °C 1017.3 hPa Calm   1.6 km/h 89% 0.0 mm 104 W/m2
08:04 4.8 °C 3 °C 1017.3 hPa Calm   3.2 km/h 88% 0.0 mm 98 W/m2
08:09 4.9 °C 3.2 °C 1017.3 hPa Calm   1.6 km/h 89% 0.0 mm 79 W/m2
08:14 5.2 °C 3.4 °C 1017.3 hPa ENE 3.2 km/h 4.8 km/h 88% 0.0 mm 90 W/m2
08:19 5.4 °C 3.6 °C 1016.9 hPa ENE 1.4 km/h 3.2 km/h 88% 0.0 mm 81 W/m2
08:24 5.6 °C 3.6 °C 1016.9 hPa ENE 3.2 km/h 3.2 km/h 87% 0.0 mm 69 W/m2
08:29 5.9 °C 3.9 °C 1016.9 hPa ENE 1.4 km/h 3.2 km/h 87% 0.0 mm 76 W/m2
08:34 6.4 °C 4.2 °C 1016.9 hPa East 1.4 km/h 6.4 km/h 86% 0.0 mm 95 W/m2
08:39 6.8 °C 4.3 °C 1016.9 hPa NE 3.2 km/h 4.8 km/h 84% 0.0 mm 127 W/m2
08:44 7 °C 4.1 °C 1016.9 hPa East 4.7 km/h 6.4 km/h 82% 0.0 mm 227 W/m2
08:49 7.2 °C 4 °C 1016.9 hPa East 1.4 km/h 4.8 km/h 80% 0.0 mm 311 W/m2
08:54 7.4 °C 4.2 °C 1016.9 hPa East 3.2 km/h 3.2 km/h 80% 0.0 mm 439 W/m2
08:59 7.7 °C 4.3 °C 1016.9 hPa ESE 3.2 km/h 9.7 km/h 79% 0.0 mm 508 W/m2
09:04 8.1 °C 4.5 °C 1016.9 hPa ENE 3.2 km/h 4.8 km/h 78% 0.0 mm 297 W/m2
09:09 8.2 °C 4.4 °C 1016.9 hPa NE 1.4 km/h 9.7 km/h 77% 0.0 mm 237 W/m2
09:14 8.2 °C 4.4 °C 1016.9 hPa ENE 4.7 km/h 8 km/h 77% 0.0 mm 211 W/m2
09:19 8.2 °C 4.2 °C 1016.9 hPa NE 4.7 km/h 4.8 km/h 76% 0.0 mm 237 W/m2
09:24 8.2 °C 4.2 °C 1016.9 hPa NE 1.4 km/h 6.4 km/h 76% 0.0 mm 200 W/m2
09:29 8.3 °C 4.3 °C 1016.9 hPa ENE 3.2 km/h 4.8 km/h 76% 0.0 mm 276 W/m2
09:34 8.4 °C 4.4 °C 1016.9 hPa NE 1.4 km/h 6.4 km/h 76% 0.0 mm 378 W/m2
09:39 8.7 °C 4.5 °C 1016.9 hPa East 1.4 km/h 6.4 km/h 75% 0.0 mm 306 W/m2
09:44 8.9 °C 4.7 °C 1016.6 hPa ENE 3.2 km/h 8 km/h 75% 0.0 mm 295 W/m2
09:49 9.1 °C 4.7 °C 1016.6 hPa NE 6.4 km/h 9.7 km/h 74% 0.0 mm 399 W/m2
09:54 9.3 °C 4.9 °C 1016.6 hPa ENE 3.2 km/h 4.8 km/h 74% 0.0 mm 332 W/m2
09:59 9.5 °C 4.5 °C 1016.6 hPa SE 6.4 km/h 6.4 km/h 71% 0.0 mm 260 W/m2
10:04 9.7 °C 4.7 °C 1016.6 hPa ESE 1.4 km/h 11.3 km/h 71% 0.0 mm 336 W/m2
10:09 10.1 °C 4.9 °C 1016.6 hPa ENE 1.4 km/h 11.3 km/h 70% 0.0 mm 332 W/m2
10:14 10.3 °C 4.9 °C 1016.3 hPa East 6.4 km/h 11.3 km/h 69% 0.0 mm 294 W/m2
10:19 10.5 °C 4.6 °C 1016.3 hPa East 9.7 km/h 9.7 km/h 67% 0.0 mm 410 W/m2
10:24 10.8 °C 5.1 °C 1016.3 hPa NE 1.4 km/h 11.3 km/h 68% 0.0 mm 401 W/m2
10:29 11.1 °C 5.2 °C 1016.3 hPa Calm   8 km/h 67% 0.0 mm 411 W/m2
10:34 11.4 °C 5.5 °C 1016.3 hPa ENE 3.2 km/h 9.7 km/h 67% 0.0 mm 566 W/m2
10:39 11.7 °C 5.6 °C 1016.3 hPa East 3.2 km/h 6.4 km/h 66% 0.0 mm 564 W/m2
10:44 12.1 °C 5.7 °C 1016.3 hPa Calm   6.4 km/h 65% 0.0 mm 494 W/m2
10:49 12.3 °C 5.2 °C 1016.3 hPa ENE 3.2 km/h 6.4 km/h 62% 0.0 mm 346 W/m2
10:54 12.4 °C 5.3 °C 1016.3 hPa ENE 4.7 km/h 9.7 km/h 62% 0.0 mm 306 W/m2
10:59 12.5 °C 5.4 °C 1015.9 hPa East 4.7 km/h 4.8 km/h 62% 0.0 mm 260 W/m2
11:04 12.7 °C 5.1 °C 1015.9 hPa ENE 9.7 km/h 9.7 km/h 60% 0.0 mm 350 W/m2
11:09 12.8 °C 5.2 °C 1015.9 hPa ENE 6.4 km/h 11.3 km/h 60% 0.0 mm 315 W/m2
11:14 12.9 °C 5.1 °C 1015.9 hPa East 3.2 km/h 6.4 km/h 59% 0.0 mm 301 W/m2
11:19 13 °C 5.2 °C 1015.6 hPa East 4.7 km/h 6.4 km/h 59% 0.0 mm 343 W/m2
11:24 13.1 °C 5.3 °C 1015.6 hPa ENE 4.7 km/h 9.7 km/h 59% 0.0 mm 336 W/m2
11:29 13.3 °C 5.5 °C 1015.6 hPa Calm   12.9 km/h 59% 0.0 mm 353 W/m2
11:34 13.4 °C 5.5 °C 1015.6 hPa NNE 7.9 km/h 11.3 km/h 59% 0.0 mm 411 W/m2
11:39 13.6 °C 6 °C 1015.2 hPa East 4.7 km/h 6.4 km/h 60% 0.0 mm 325 W/m2
11:44 13.7 °C 5.8 °C 1015.2 hPa ENE 4.7 km/h 8 km/h 59% 0.0 mm 355 W/m2
11:49 13.7 °C 5.8 °C 1015.2 hPa ENE 7.9 km/h 12.9 km/h 59% 0.0 mm 239 W/m2
11:54 13.7 °C 5.8 °C 1015.2 hPa ENE 4.7 km/h 11.3 km/h 59% 0.0 mm 248 W/m2
11:59 13.7 °C 6.1 °C 1015.2 hPa East 4.7 km/h 11.3 km/h 60% 0.0 mm 265 W/m2
12:04 13.7 °C 6.1 °C 1015.2 hPa East 4.7 km/h 6.4 km/h 60% 0.0 mm 278 W/m2
12:09 13.7 °C 6.1 °C 1015.2 hPa NE 4.7 km/h 12.9 km/h 60% 0.0 mm 281 W/m2
12:14 13.8 °C 6.4 °C 1015.2 hPa NE 3.2 km/h 9.7 km/h 61% 0.0 mm 246 W/m2
12:19 13.8 °C 6.4 °C 1015.2 hPa ESE 13 km/h 12.9 km/h 61% 0.0 mm 207 W/m2
12:24 13.7 °C 6.3 °C 1015.2 hPa ESE 6.4 km/h 6.4 km/h 61% 0.0 mm 220 W/m2
12:29 13.7 °C 6.1 °C 1015.2 hPa East 7.9 km/h 9.7 km/h 60% 0.0 mm 214 W/m2
12:34 13.8 °C 6.4 °C 1015.2 hPa East 7.9 km/h 11.3 km/h 61% 0.0 mm 220 W/m2
12:39 13.8 °C 6.4 °C 1014.9 hPa East 4.7 km/h 8 km/h 61% 0.0 mm 230 W/m2
12:44 13.9 °C 6.3 °C 1014.9 hPa East 1.4 km/h 3.2 km/h 60% 0.0 mm 294 W/m2
12:49 14.1 °C 6.5 °C 1014.9 hPa ENE 4.7 km/h 9.7 km/h 60% 0.0 mm 290 W/m2
12:54 14.3 °C 6.6 °C 1014.9 hPa ENE 9.7 km/h 12.9 km/h 60% 0.0 mm 281 W/m2
12:59 14.3 °C 6.1 °C 1014.6 hPa SSE 1.4 km/h 6.4 km/h 58% 0.0 mm 301 W/m2
13:04 14.4 °C 6.5 °C 1014.6 hPa NNE 3.2 km/h 9.7 km/h 59% 0.0 mm 274 W/m2
13:09 14.5 °C 6.6 °C 1014.6 hPa SE 1.4 km/h 4.8 km/h 59% 0.0 mm 250 W/m2
13:14 14.7 °C 6.8 °C 1014.6 hPa ESE 4.7 km/h 12.9 km/h 59% 0.0 mm 251 W/m2
13:19 14.7 °C 6.8 °C 1014.6 hPa East 14.3 km/h 16.1 km/h 59% 0.0 mm 345 W/m2
13:24 14.8 °C 6.9 °C 1014.6 hPa SSE 4.7 km/h 9.7 km/h 59% 0.0 mm 457 W/m2
13:29 15.1 °C 7.1 °C 1014.2 hPa ENE 3.2 km/h 9.7 km/h 59% 0.0 mm 357 W/m2
13:34 15.3 °C 7.3 °C 1014.2 hPa ESE 4.7 km/h 11.3 km/h 59% 0.0 mm 381 W/m2
13:39 15.4 °C 7.4 °C 1014.2 hPa East 3.2 km/h 9.7 km/h 59% 0.0 mm 457 W/m2
13:44 15.6 °C 7.4 °C 1014.2 hPa ESE 3.2 km/h 11.3 km/h 58% 0.0 mm 401 W/m2
13:49 15.7 °C 7.5 °C 1014.2 hPa SSE 13 km/h 12.9 km/h 58% 0.0 mm 306 W/m2
13:54 15.7 °C 7.5 °C 1013.9 hPa NNE 6.4 km/h 12.9 km/h 58% 0.0 mm 345 W/m2
13:59 15.8 °C 7.8 °C 1013.9 hPa ENE 3.2 km/h 11.3 km/h 59% 0.0 mm 401 W/m2
14:04 15.8 °C 7.6 °C 1013.9 hPa ENE 3.2 km/h 9.7 km/h 58% 0.0 mm 304 W/m2
14:09 15.8 °C 7.8 °C 1013.5 hPa ESE 3.2 km/h 11.3 km/h 59% 0.0 mm 399 W/m2
14:14 16.1 °C 8.1 °C 1013.5 hPa ENE 3.2 km/h 8 km/h 59% 0.0 mm 515 W/m2
14:19 16.3 °C 7.8 °C 1013.5 hPa NE 1.4 km/h 4.8 km/h 57% 0.0 mm 350 W/m2
14:24 16.4 °C 8.1 °C 1013.5 hPa East 3.2 km/h 8 km/h 58% 0.0 mm 445 W/m2
14:29 16.6 °C 8.3 °C 1013.5 hPa Calm   11.3 km/h 58% 0.0 mm 439 W/m2
14:34 16.8 °C 8.5 °C 1013.2 hPa ESE 3.2 km/h 4.8 km/h 58% 0.0 mm 396 W/m2
14:39 16.9 °C 8.8 °C 1013.2 hPa NNW 3.2 km/h 11.3 km/h 59% 0.0 mm 250 W/m2
14:44 17 °C 8.7 °C 1013.2 hPa NNW 1.4 km/h 4.8 km/h 58% 0.0 mm 339 W/m2
14:49 17.1 °C 8.8 °C 1013.2 hPa East 4.7 km/h 11.3 km/h 58% 0.0 mm 378 W/m2
14:54 17.3 °C 9.2 °C 1012.9 hPa East 1.4 km/h 9.7 km/h 59% 0.0 mm 461 W/m2
15:00 17.4 °C 9.1 °C 1012.9 hPa NNW 1.4 km/h 3.2 km/h 58% 0.0 mm 450 W/m2
15:05 17.6 °C 8.7 °C 1012.9 hPa NE 3.2 km/h 6.4 km/h 56% 0.0 mm 454 W/m2
15:10 17.7 °C 9.3 °C 1012.9 hPa SE 4.7 km/h 12.9 km/h 58% 0.0 mm 580 W/m2
15:15 17.8 °C 9.2 °C 1012.5 hPa ENE 6.4 km/h 19.3 km/h 57% 0.0 mm 332 W/m2
15:20 17.8 °C 9.4 °C 1012.5 hPa East 3.2 km/h 6.4 km/h 58% 0.0 mm 357 W/m2
15:25 17.7 °C 9.3 °C 1012.5 hPa Calm   12.9 km/h 58% 0.0 mm 452 W/m2
15:30 17.7 °C 9.6 °C 1012.5 hPa Calm   11.3 km/h 59% 0.0 mm 322 W/m2
15:35 17.8 °C 9.4 °C 1012.5 hPa ENE 3.2 km/h 11.3 km/h 58% 0.0 mm 309 W/m2
15:40 17.9 °C 9.5 °C 1012.2 hPa Calm   6.4 km/h 58% 0.0 mm 295 W/m2
15:45 17.9 °C 9.5 °C 1012.2 hPa ESE 6.4 km/h 11.3 km/h 58% 0.0 mm 390 W/m2
15:50 18.1 °C 9.7 °C 1012.2 hPa NE 3.2 km/h 4.8 km/h 58% 0.0 mm 448 W/m2
15:55 18.4 °C 10 °C 1011.9 hPa NNE 4.7 km/h 8 km/h 58% 0.0 mm 448 W/m2
16:00 18.5 °C 10.1 °C 1011.9 hPa NW 4.7 km/h 16.1 km/h 58% 0.0 mm 482 W/m2
16:05 18.5 °C 10.3 °C 1011.9 hPa NW 1.4 km/h 8 km/h 59% 0.0 mm 494 W/m2
16:10 18.8 °C 10.4 °C 1011.9 hPa NE 4.7 km/h 17.7 km/h 58% 0.0 mm 461 W/m2
16:15 19.1 °C 10.6 °C 1011.9 hPa North 3.2 km/h 8 km/h 58% 0.0 mm 541 W/m2
16:20 18.9 °C 10.2 °C 1011.9 hPa West 22.7 km/h 22.5 km/h 57% 0.0 mm 336 W/m2
16:25 18.9 °C 10.7 °C 1011.9 hPa East 9.7 km/h 9.7 km/h 59% 0.0 mm 304 W/m2
16:30 18.8 °C 10.1 °C 1011.5 hPa NW 25.7 km/h 25.7 km/h 57% 0.0 mm 345 W/m2
16:35 18.8 °C 10.1 °C 1011.5 hPa Calm   22.5 km/h 57% 0.0 mm 373 W/m2
16:40 19 °C 10.5 °C 1011.5 hPa WNW 6.4 km/h 12.9 km/h 58% 0.0 mm 334 W/m2
16:45 19.1 °C 10.4 °C 1011.5 hPa WNW 6.4 km/h 22.5 km/h 57% 0.0 mm 315 W/m2
16:50 19.1 °C 10.4 °C 1011.5 hPa SSW 3.2 km/h 8 km/h 57% 0.0 mm 338 W/m2
16:55 19.1 °C 10.6 °C 1011.2 hPa NNE 1.4 km/h 9.7 km/h 58% 0.0 mm 301 W/m2
17:00 19.2 °C 10.5 °C 1011.2 hPa NW 6.4 km/h 12.9 km/h 57% 0.0 mm 269 W/m2
17:05 19.2 °C 10.5 °C 1011.2 hPa ESE 3.2 km/h 11.3 km/h 57% 0.0 mm 236 W/m2
17:10 19.1 °C 10.4 °C 1011.2 hPa WNW 4.7 km/h 11.3 km/h 57% 0.0 mm 221 W/m2
17:15 19.1 °C 10.4 °C 1011.2 hPa ESE 4.7 km/h 6.4 km/h 57% 0.0 mm 241 W/m2
17:20 19.1 °C 10.6 °C 1011.2 hPa NW 6.4 km/h 6.4 km/h 58% 0.0 mm 172 W/m2
17:25 19.1 °C 10.6 °C 1010.8 hPa NNE 7.9 km/h 9.7 km/h 58% 0.0 mm 255 W/m2
17:30 19.1 °C 10.6 °C 1010.8 hPa WNW 7.9 km/h 12.9 km/h 58% 0.0 mm 301 W/m2
17:35 19.2 °C 11 °C 1010.8 hPa NNE 3.2 km/h 3.2 km/h 59% 0.0 mm 278 W/m2
17:40 19.3 °C 10.8 °C 1010.8 hPa East 1.4 km/h 6.4 km/h 58% 0.0 mm 253 W/m2
17:45 19.4 °C 10.7 °C 1010.8 hPa SW 3.2 km/h 4.8 km/h 57% 0.0 mm 183 W/m2
17:50 19.3 °C 10.8 °C 1010.8 hPa NW 4.7 km/h 9.7 km/h 58% 0.0 mm 148 W/m2
17:55 19.2 °C 11 °C 1010.8 hPa NW 1.4 km/h 1.6 km/h 59% 0.0 mm 135 W/m2
18:00 19.2 °C 11 °C 1010.8 hPa North 1.4 km/h 3.2 km/h 59% 0.0 mm 120 W/m2
18:05 19.2 °C 11 °C 1010.8 hPa ENE 3.2 km/h 4.8 km/h 59% 0.0 mm 102 W/m2
18:10 19.1 °C 10.9 °C 1010.8 hPa Calm   1.6 km/h 59% 0.0 mm 86 W/m2
18:15 19.1 °C 10.9 °C 1010.8 hPa NE 4.7 km/h 4.8 km/h 59% 0.0 mm 95 W/m2
18:20 19.1 °C 11.2 °C 1010.8 hPa ENE 3.2 km/h 4.8 km/h 60% 0.0 mm 100 W/m2
18:25 19 °C 11.1 °C 1010.5 hPa Calm   3.2 km/h 60% 0.0 mm 155 W/m2
18:30 19.1 °C 11.2 °C 1010.5 hPa ENE 6.4 km/h 11.3 km/h 60% 0.0 mm 178 W/m2
18:35 19.2 °C 11 °C 1010.5 hPa North 1.4 km/h 3.2 km/h 59% 0.0 mm 169 W/m2
18:40 19.3 °C 11.3 °C 1010.2 hPa North 3.2 km/h 11.3 km/h 60% 0.0 mm 113 W/m2
18:45 19.5 °C 11.3 °C 1010.2 hPa NE 1.4 km/h 3.2 km/h 59% 0.0 mm 362 W/m2
18:50 19.7 °C 11.5 °C 1010.2 hPa NE 1.4 km/h 3.2 km/h 59% 0.0 mm 114 W/m2
18:55 19.7 °C 11.5 °C 1010.2 hPa West 4.7 km/h 8 km/h 59% 0.0 mm 104 W/m2
19:00 19.9 °C 11.6 °C 1010.2 hPa West 6.4 km/h 6.4 km/h 59% 0.0 mm 285 W/m2
19:05 20.1 °C 11.3 °C 1010.2 hPa NNW 3.2 km/h 8 km/h 57% 0.0 mm 86 W/m2
19:10 20.1 °C 11.6 °C 1010.2 hPa NNW 1.4 km/h 4.8 km/h 58% 0.0 mm 113 W/m2
19:15 20 °C 11.2 °C 1010.2 hPa Calm   4.8 km/h 57% 0.0 mm 105 W/m2
19:20 19.8 °C 11.3 °C 1010.2 hPa NNE 1.4 km/h 4.8 km/h 58% 0.0 mm 79 W/m2
19:25 19.7 °C 11.2 °C 1010.2 hPa North 3.2 km/h 8 km/h 58% 0.0 mm 111 W/m2
19:30 19.6 °C 11.4 °C 1010.2 hPa West 1.4 km/h 3.2 km/h 59% 0.0 mm 70 W/m2
19:35 19.6 °C 11.4 °C 1009.8 hPa Calm   4.8 km/h 59% 0.0 mm 105 W/m2
19:40 19.6 °C 11.6 °C 1009.8 hPa Calm   3.2 km/h 60% 0.0 mm 181 W/m2
19:45 19.8 °C 12.1 °C 1009.8 hPa West 1.4 km/h 1.6 km/h 61% 0.0 mm 193 W/m2
19:50 19.9 °C 11.6 °C 1009.8 hPa WNW 1.4 km/h 1.6 km/h 59% 0.0 mm 158 W/m2
19:55 20 °C 11.5 °C 1009.8 hPa East 1.4 km/h 3.2 km/h 58% 0.0 mm 148 W/m2
20:00 20 °C 12 °C 1009.8 hPa Calm   1.6 km/h 60% 0.0 mm 84 W/m2
20:05 19.9 °C 12.2 °C 1009.8 hPa Calm     61% 0.0 mm 62 W/m2
20:10 19.8 °C 12.6 °C 1009.8 hPa Calm     63% 0.0 mm 51 W/m2
20:15 19.6 °C 12.8 °C 1009.8 hPa Calm     65% 0.0 mm 33 W/m2
20:20 19.4 °C 12.9 °C 1009.8 hPa Calm     66% 0.0 mm 32 W/m2
20:25 19.2 °C 12.9 °C 1009.8 hPa Calm     67% 0.0 mm 26 W/m2
20:30 19 °C 12.7 °C 1009.8 hPa Calm     67% 0.0 mm 19 W/m2
20:35 18.8 °C 12.8 °C 1009.8 hPa Calm     68% 0.0 mm 12 W/m2
20:40 18.5 °C 12.5 °C 1009.8 hPa Calm     68% 0.0 mm 11 W/m2
20:45 18.2 °C 12.4 °C 1009.8 hPa Calm     69% 0.0 mm 11 W/m2
20:50 17.9 °C 12.4 °C 1009.8 hPa Calm     70% 0.0 mm 9 W/m2
20:55 17.6 °C 12.1 °C 1009.8 hPa Calm     70% 0.0 mm 5 W/m2
21:00 17.3 °C 12 °C 1009.8 hPa Calm     71% 0.0 mm 0 W/m2
21:05 16.9 °C 11.8 °C 1009.8 hPa Calm     72% 0.0 mm 0 W/m2
21:10 16.7 °C 11.6 °C 1009.8 hPa Calm     72% 0.0 mm 0 W/m2
21:15 16.4 °C 11.5 °C 1009.8 hPa Calm     73% 0.0 mm 0 W/m2
21:21 16 °C 11.4 °C 1009.8 hPa Calm   3.2 km/h 74% 0.0 mm 0 W/m2
21:26 15.7 °C 11.5 °C 1009.8 hPa Calm   3.2 km/h 76% 0.0 mm 0 W/m2
21:31 15.4 °C 11.2 °C 1009.8 hPa Calm     76% 0.0 mm 0 W/m2
21:36 15.1 °C 11.3 °C 1009.8 hPa Calm   1.6 km/h 78% 0.0 mm 0 W/m2
21:41 14.8 °C 11 °C 1009.8 hPa Calm     78% 0.0 mm 0 W/m2
21:46 14.6 °C 11 °C 1009.8 hPa Calm     79% 0.0 mm 0 W/m2
21:51 14.3 °C 10.9 °C 1009.8 hPa Calm     80% 0.0 mm 0 W/m2
21:56 14.2 °C 11 °C 1009.8 hPa Calm     81% 0.0 mm 0 W/m2
22:01 13.9 °C 10.7 °C 1009.8 hPa Calm     81% 0.0 mm 0 W/m2
22:06 13.7 °C 10.7 °C 1009.8 hPa Calm     82% 0.0 mm 0 W/m2
22:11 13.6 °C 10.8 °C 1009.8 hPa Calm     83% 0.0 mm 0 W/m2
22:16 13.4 °C 10.6 °C 1009.8 hPa Calm     83% 0.0 mm 0 W/m2
22:21 13.3 °C 10.7 °C 1009.8 hPa Calm     84% 0.0 mm 0 W/m2
22:26 13.2 °C 10.6 °C 1009.8 hPa Calm     84% 0.0 mm 0 W/m2
22:31 13.1 °C 10.6 °C 1009.8 hPa Calm     85% 0.0 mm 0 W/m2
22:36 12.9 °C 10.4 °C 1009.8 hPa Calm     85% 0.0 mm 0 W/m2
22:41 12.9 °C 10.6 °C 1009.8 hPa Calm   1.6 km/h 86% 0.0 mm 0 W/m2
22:46 12.8 °C 10.5 °C 1009.8 hPa Calm   1.6 km/h 86% 0.0 mm 0 W/m2
22:51 12.7 °C 10.4 °C 1009.8 hPa Calm     86% 0.0 mm 0 W/m2
22:56 12.6 °C 10.3 °C 1009.8 hPa Calm     86% 0.0 mm 0 W/m2
23:01 12.6 °C 10.3 °C 1009.8 hPa Calm   1.6 km/h 86% 0.0 mm 0 W/m2
23:06 12.4 °C 10.3 °C 1009.8 hPa Calm   1.6 km/h 87% 0.0 mm 0 W/m2
23:11 12.3 °C 10.2 °C 1009.8 hPa East 1.4 km/h 1.6 km/h 87% 0.0 mm 0 W/m2
23:16 12.1 °C 10 °C 1009.8 hPa Calm   1.6 km/h 87% 0.0 mm 0 W/m2
23:21 12 °C 10.1 °C 1009.8 hPa Calm     88% 0.0 mm 0 W/m2
23:26 11.8 °C 9.9 °C 1009.8 hPa Calm     88% 0.0 mm 0 W/m2
23:31 11.8 °C 10 °C 1009.8 hPa Calm   1.6 km/h 89% 0.0 mm 0 W/m2
23:36 11.7 °C 9.9 °C 1009.8 hPa Calm     89% 0.0 mm 0 W/m2
23:41 11.6 °C 9.8 °C 1009.8 hPa Calm     89% 0.0 mm 0 W/m2
23:46 11.4 °C 9.7 °C 1009.8 hPa Calm     89% 0.0 mm 0 W/m2
23:51 11.3 °C 9.6 °C 1009.5 hPa Calm   1.6 km/h 89% 0.0 mm 0 W/m2
23:56 11.3 °C 9.7 °C 1009.5 hPa Calm     90% 0.0 mm 0 W/m2
Juneau County Weather
Compliments of Weather Underground - 2 mb